Rhinelander Oneida County Airport
KRHI : now visible

Airfield :











YOU CAN JOIN US ON...

 
LOGIN :

Register | Disclaimer

   EN    FR    IT 

 









Legend :    VFR   Marginal VFR   IFR   Intensive IFR   Very Intensive IFR
Visi :
Ceiling :
>= 8 km
>= 3000ft
5 to 8 km
1000 to 3000 ft
1500m to 5 km
500 to 1000 ft
800 to 1500m
200 to 500 ft
< 800m
< 200 ft
Symbols :   Thunderstorms  Fog  Heavy snow  Heavy precipitations  Wind > 20 kt






- Airport Elevation : 1624 ft
- IATA code : RHI


KRHI - Rhinelander Oneida County

CURRENT METAR :
  • 051953Z AUTO 13005KT 10SM OVC050 M01/M04 A2986 RMK AO2 SLP131 T10111044

EXPIRED METARs :
  • 051853Z AUTO 16006KT 10SM BKN060 OVC075 M01/M04 A2986 RMK AO2 SNB25E35 SLP133 P0000 T10111044
  • 051753Z AUTO 17005KT 10SM SCT060 BKN075 OVC095 M02/M04 A2989 RMK AO2 SLP144 T10171044 11017 21044 50001

TAF KRHI
Valid from the 05 at 18:00 until the 06 at 18:00 UTC


051738Z 0518/0618 11004KT P6SM OVC060
TEMPO 0521/0524 5SM -SHSN OVC015
FM060000 35003KT 6SM -SHSN OVC008
FM060600 32007KT P6SM -SHSN BKN013
FM061300 32006KT P6SM SCT040



MET'MAP, your aeronautical weather chart ! - Copyright ORBIFLY December 2007 - Disclaimer

ORBIFLY MET'MAP TEAM :

Programming & Development : Alexandra Zaïnal
Concept & original design : Baudouin d'Aumeries
Assistance for programming : Marc-Olivier Méhu
Technical & hardware support : Manuel Goepfert

Contact : metmap@orbifly.com




SOURCES & CREDITS :

   NOAA       Earth
Advisory